Sign-in with your pilot id or email, or register
"When once you have tasted flight, y ou will forever walk the earth with your eyes turned skyward, for there you have been, and there you will always long to return."
LEONARDO DA VINCI

Flight VLH8906

  • Submitted By: Walter Huber
  • Departure Airport: San Salvador (SAL) (MSLP)
  • Arrival Airport: San Pedro Sula (SAP) (MHLM)
  • Scheduled Departure:
  • Scheduled Arrival:
  • Aircraft: B732 (HR-VHD)
  • Flight Time: 0.43
  • Date Submitted: 16/04/2015
  • Status: Accepted
Flight Details
Gross Revenue:
(108 load / € 241.39 per unit
€ 26, 070.01
Fuel Cost:
(4671 fuel used @ 0.56 / unit)
€ 2, 615.76

Additional Log Information:

View Log

[2015/04/16 15:20:00]
Flight IATA:VLH8906
Pilot Number:VLI0005
Company ICAO:VLI
Aircraft Type:B737-200
PAX:108
Aircraft Registration:HR-VHD
Departing Airport: MSLP
Destination Airport: MHLM
Online: No
Route:DCT
Flight Level:20000
15:20 Zero fuel Weight: 82426 Lbs, Fuel Weight: 27566 Lbs
15:20 VATSIM:MSLP 161450Z 06005KT 350V130 9999 FEW033 31/22 Q1012 A2989
15:20 VATSIM:MHLM 161500Z 18002KT 9999 FEW028 30/25 Q1014 A2994 NOSIG
15:21 Parking Brakes off
15:22 VR= 164 Knots
15:22 V2= 169 Knots
15:22 Take-off
15:22 Take off Weight: 109627 Lbs
15:22 Wind: 056? @ 006 Knots Heading: 069?
15:22 POS N13? 26? 33?? W089? 03? 03??
15:22 N11 104 N12 104
15:22 Flaps:1 at 170 Knots
15:22 Gear Up: 173 Knots
15:22 Flaps:0 at 173 Knots
15:22 Flaps:1 at 173 Knots
15:33 Flaps:2 at 249 Knots
15:33 Flaps:1 at 250 Knots
15:37 Wind:062?@010 Knots Heading: 032? Ground Speed: 293 Knots Altitude 13674 ft
15:37 Com1 Freq=123.90
15:44 Com1 Freq=118.20
15:52 Wind:051?@004 Knots Heading: 033? Ground Speed: 266 Knots Altitude 5921 ft
15:57 Gear Down: 224 Knots
15:58 Flaps:8 at 181 Knots
15:58 Flaps:1 at 176 Knots
15:58 Flaps:2 at 162 Knots
15:58 Flaps:3 at 161 Knots
15:58 Flaps:4 at 158 Knots
15:58 Flaps:5 at 155 Knots
15:59 Flaps:6 at 150 Knots
15:59 Flaps:7 at 139 Knots
16:02 TouchDown:Rate -169 ft/min Speed: 126 Knots
16:02 VATSIM:MHLM 161600Z VRB02KT 9999 FEW030 32/24 Q1013 A2991 NOSIG
16:02 Land
16:02 Wind:215?@006 Knots
16:02 Heading: 223?
16:02 Flight Duration: 00:40
16:02 Landing Weight: 105511 Lbs
16:02 POS N15? 27? 20?? W087? 55? 21??
16:02 Com1 Freq=121.90
16:04 Parking brakes on
16:04 Block to Block Duration: 00:43
16:04 Final Fuel: 22894 Lbls
16:04 Spent Fuel: 4671 Lbls
16:04 Flight Length: 176 NM
16:04 TOD Land Length: 176 NM

Route Map